sensor_id;sensor_type;location;lat;lon;timestamp;temperature;humidity
18932;DHT22;9598;50.954;3.112;2023-02-19T00:03:03;11.50;99.90
18932;DHT22;9598;50.954;3.112;2023-02-19T00:08:05;11.40;99.90
18932;DHT22;9598;50.954;3.112;2023-02-19T00:13:07;11.40;99.90
18932;DHT22;9598;50.954;3.112;2023-02-19T00:18:11;11.40;99.90
18932;DHT22;9598;50.954;3.112;2023-02-19T00:23:13;11.40;99.90
18932;DHT22;9598;50.954;3.112;2023-02-19T00:28:15;11.40;99.90
18932;DHT22;9598;50.954;3.112;2023-02-19T00:33:21;11.40;99.90
18932;DHT22;9598;50.954;3.112;2023-02-19T00:38:23;11.40;99.90
18932;DHT22;9598;50.954;3.112;2023-02-19T00:43:25;11.40;99.90
18932;DHT22;9598;50.954;3.112;2023-02-19T00:48:32;11.40;99.90
18932;DHT22;9598;50.954;3.112;2023-02-19T00:53:34;11.40;99.90
18932;DHT22;9598;50.954;3.112;2023-02-19T00:58:37;11.40;99.90
18932;DHT22;9598;50.954;3.112;2023-02-19T01:03:40;11.40;99.90
18932;DHT22;9598;50.954;3.112;2023-02-19T01:08:44;11.40;99.90
18932;DHT22;9598;50.954;3.112;2023-02-19T01:13:46;11.40;99.90
18932;DHT22;9598;50.954;3.112;2023-02-19T01:18:50;11.40;99.90
18932;DHT22;9598;50.954;3.112;2023-02-19T01:23:53;11.40;99.90
18932;DHT22;9598;50.954;3.112;2023-02-19T01:28:55;11.40;99.90
18932;DHT22;9598;50.954;3.112;2023-02-19T01:34:00;11.40;99.90
18932;DHT22;9598;50.954;3.112;2023-02-19T01:39:04;11.40;99.90
18932;DHT22;9598;50.954;3.112;2023-02-19T01:44:59;11.40;99.90
18932;DHT22;9598;50.954;3.112;2023-02-19T01:49:33;11.40;99.90
18932;DHT22;9598;50.954;3.112;2023-02-19T01:54:38;11.50;99.90
18932;DHT22;9598;50.954;3.112;2023-02-19T01:59:42;11.50;99.90
18932;DHT22;9598;50.954;3.112;2023-02-19T02:04:45;11.50;99.90
18932;DHT22;9598;50.954;3.112;2023-02-19T02:09:50;11.50;99.90
18932;DHT22;9598;50.954;3.112;2023-02-19T02:15:10;11.50;99.90
18932;DHT22;9598;50.954;3.112;2023-02-19T02:20:31;11.50;99.90
18932;DHT22;9598;50.954;3.112;2023-02-19T02:25:55;11.50;99.90
18932;DHT22;9598;50.954;3.112;2023-02-19T02:31:03;11.40;99.90
18932;DHT22;9598;50.954;3.112;2023-02-19T02:36:11;11.50;99.90
18932;DHT22;9598;50.954;3.112;2023-02-19T02:41:15;11.40;99.90
18932;DHT22;9598;50.954;3.112;2023-02-19T02:46:23;11.40;99.90
18932;DHT22;9598;50.954;3.112;2023-02-19T02:51:29;11.40;99.90
18932;DHT22;9598;50.954;3.112;2023-02-19T02:56:39;11.40;99.90
18932;DHT22;9598;50.954;3.112;2023-02-19T03:01:46;11.40;99.90
18932;DHT22;9598;50.954;3.112;2023-02-19T03:07:08;11.30;99.90
18932;DHT22;9598;50.954;3.112;2023-02-19T03:12:14;11.30;99.90
18932;DHT22;9598;50.954;3.112;2023-02-19T03:17:40;11.30;99.90
18932;DHT22;9598;50.954;3.112;2023-02-19T03:23:02;11.30;99.90
18932;DHT22;9598;50.954;3.112;2023-02-19T03:28:07;11.30;99.90
18932;DHT22;9598;50.954;3.112;2023-02-19T03:33:14;11.20;99.90
18932;DHT22;9598;50.954;3.112;2023-02-19T03:38:21;11.20;99.90
18932;DHT22;9598;50.954;3.112;2023-02-19T03:43:33;11.20;99.90
18932;DHT22;9598;50.954;3.112;2023-02-19T03:48:42;11.20;99.90
18932;DHT22;9598;50.954;3.112;2023-02-19T03:53:54;11.20;99.90
18932;DHT22;9598;50.954;3.112;2023-02-19T03:59:04;11.20;99.90
18932;DHT22;9598;50.954;3.112;2023-02-19T04:04:17;11.20;99.90
18932;DHT22;9598;50.954;3.112;2023-02-19T04:09:21;11.20;99.90
18932;DHT22;9598;50.954;3.112;2023-02-19T04:14:36;11.20;99.90
18932;DHT22;9598;50.954;3.112;2023-02-19T04:19:41;11.20;99.90
18932;DHT22;9598;50.954;3.112;2023-02-19T04:24:47;11.20;99.90
18932;DHT22;9598;50.954;3.112;2023-02-19T04:29:49;11.20;99.90
18932;DHT22;9598;50.954;3.112;2023-02-19T04:34:53;11.20;99.90
18932;DHT22;9598;50.954;3.112;2023-02-19T04:39:55;11.20;99.90
18932;DHT22;9598;50.954;3.112;2023-02-19T04:44:57;11.20;99.90
18932;DHT22;9598;50.954;3.112;2023-02-19T04:50:00;11.10;99.90
18932;DHT22;9598;50.954;3.112;2023-02-19T04:55:03;11.10;99.90
18932;DHT22;9598;50.954;3.112;2023-02-19T05:00:06;11.20;99.90
18932;DHT22;9598;50.954;3.112;2023-02-19T05:05:10;11.10;99.90
18932;DHT22;9598;50.954;3.112;2023-02-19T05:10:12;11.10;99.90
18932;DHT22;9598;50.954;3.112;2023-02-19T05:15:14;11.20;99.90
18932;DHT22;9598;50.954;3.112;2023-02-19T05:20:18;11.20;99.90
18932;DHT22;9598;50.954;3.112;2023-02-19T05:25:22;11.20;99.90
18932;DHT22;9598;50.954;3.112;2023-02-19T05:30:24;11.10;99.90
18932;DHT22;9598;50.954;3.112;2023-02-19T05:35:30;11.10;99.90
18932;DHT22;9598;50.954;3.112;2023-02-19T05:40:32;11.10;99.90
18932;DHT22;9598;50.954;3.112;2023-02-19T05:45:35;11.10;99.90
18932;DHT22;9598;50.954;3.112;2023-02-19T05:50:38;11.10;99.90
18932;DHT22;9598;50.954;3.112;2023-02-19T05:55:46;11.10;99.90
18932;DHT22;9598;50.954;3.112;2023-02-19T06:00:48;11.10;99.90
18932;DHT22;9598;50.954;3.112;2023-02-19T06:05:52;11.10;99.90
18932;DHT22;9598;50.954;3.112;2023-02-19T06:10:54;11.10;99.90
18932;DHT22;9598;50.954;3.112;2023-02-19T06:15:56;11.10;99.90
18932;DHT22;9598;50.954;3.112;2023-02-19T06:21:01;11.20;99.90
18932;DHT22;9598;50.954;3.112;2023-02-19T06:26:06;11.10;99.90
18932;DHT22;9598;50.954;3.112;2023-02-19T06:31:09;11.10;99.90
18932;DHT22;9598;50.954;3.112;2023-02-19T06:36:14;11.10;99.90
18932;DHT22;9598;50.954;3.112;2023-02-19T06:41:17;11.10;99.90
18932;DHT22;9598;50.954;3.112;2023-02-19T06:46:19;11.10;99.90
18932;DHT22;9598;50.954;3.112;2023-02-19T06:51:22;11.10;99.90
18932;DHT22;9598;50.954;3.112;2023-02-19T06:56:29;11.10;99.90
18932;DHT22;9598;50.954;3.112;2023-02-19T07:01:32;11.00;99.90
18932;DHT22;9598;50.954;3.112;2023-02-19T07:06:36;11.00;99.90
18932;DHT22;9598;50.954;3.112;2023-02-19T07:11:39;10.90;99.90
18932;DHT22;9598;50.954;3.112;2023-02-19T07:16:41;10.90;99.90
18932;DHT22;9598;50.954;3.112;2023-02-19T07:21:45;10.90;99.90
18932;DHT22;9598;50.954;3.112;2023-02-19T07:26:49;10.90;99.90
18932;DHT22;9598;50.954;3.112;2023-02-19T07:31:51;10.90;99.90
18932;DHT22;9598;50.954;3.112;2023-02-19T07:36:54;11.00;99.90
18932;DHT22;9598;50.954;3.112;2023-02-19T07:41:57;11.00;99.90
18932;DHT22;9598;50.954;3.112;2023-02-19T07:47:01;11.00;99.90
18932;DHT22;9598;50.954;3.112;2023-02-19T07:52:05;11.00;99.90
18932;DHT22;9598;50.954;3.112;2023-02-19T07:57:07;11.00;99.90
18932;DHT22;9598;50.954;3.112;2023-02-19T08:02:14;11.10;99.90
18932;DHT22;9598;50.954;3.112;2023-02-19T08:07:36;11.10;99.90
18932;DHT22;9598;50.954;3.112;2023-02-19T08:12:38;11.10;99.90
18932;DHT22;9598;50.954;3.112;2023-02-19T08:17:57;11.10;99.90
18932;DHT22;9598;50.954;3.112;2023-02-19T08:23:01;11.10;99.90
18932;DHT22;9598;50.954;3.112;2023-02-19T08:28:04;11.10;99.90
18932;DHT22;9598;50.954;3.112;2023-02-19T08:33:07;11.10;99.90
18932;DHT22;9598;50.954;3.112;2023-02-19T08:38:11;11.10;99.90
18932;DHT22;9598;50.954;3.112;2023-02-19T08:43:16;11.10;99.90
18932;DHT22;9598;50.954;3.112;2023-02-19T08:48:19;11.20;99.90
18932;DHT22;9598;50.954;3.112;2023-02-19T08:53:23;11.20;99.90
18932;DHT22;9598;50.954;3.112;2023-02-19T08:58:25;11.20;99.90
18932;DHT22;9598;50.954;3.112;2023-02-19T09:03:27;11.30;99.90
18932;DHT22;9598;50.954;3.112;2023-02-19T09:08:30;11.30;99.90
18932;DHT22;9598;50.954;3.112;2023-02-19T09:13:33;11.30;99.90
18932;DHT22;9598;50.954;3.112;2023-02-19T09:18:36;11.30;99.90
18932;DHT22;9598;50.954;3.112;2023-02-19T09:23:40;11.30;99.90
18932;DHT22;9598;50.954;3.112;2023-02-19T09:28:42;11.20;99.90
18932;DHT22;9598;50.954;3.112;2023-02-19T09:33:45;11.30;99.90
18932;DHT22;9598;50.954;3.112;2023-02-19T09:38:49;11.30;99.90
18932;DHT22;9598;50.954;3.112;2023-02-19T09:43:52;11.40;99.90
18932;DHT22;9598;50.954;3.112;2023-02-19T09:48:59;11.40;99.90
18932;DHT22;9598;50.954;3.112;2023-02-19T09:54:09;11.40;99.90
18932;DHT22;9598;50.954;3.112;2023-02-19T09:59:18;11.40;99.90
18932;DHT22;9598;50.954;3.112;2023-02-19T10:04:21;11.40;99.90
18932;DHT22;9598;50.954;3.112;2023-02-19T10:09:26;11.40;99.90
18932;DHT22;9598;50.954;3.112;2023-02-19T10:14:35;11.40;99.90
18932;DHT22;9598;50.954;3.112;2023-02-19T10:19:39;11.50;99.90
18932;DHT22;9598;50.954;3.112;2023-02-19T10:24:43;11.60;99.90
18932;DHT22;9598;50.954;3.112;2023-02-19T10:29:47;11.60;99.90
18932;DHT22;9598;50.954;3.112;2023-02-19T10:35:07;11.50;99.90
18932;DHT22;9598;50.954;3.112;2023-02-19T10:40:18;11.50;99.90
18932;DHT22;9598;50.954;3.112;2023-02-19T10:45:23;11.60;99.90
18932;DHT22;9598;50.954;3.112;2023-02-19T10:50:30;11.60;99.90
18932;DHT22;9598;50.954;3.112;2023-02-19T10:55:34;11.70;99.90
18932;DHT22;9598;50.954;3.112;2023-02-19T11:00:38;11.70;99.90
18932;DHT22;9598;50.954;3.112;2023-02-19T11:05:50;11.70;99.90
18932;DHT22;9598;50.954;3.112;2023-02-19T11:10:57;11.60;99.90
18932;DHT22;9598;50.954;3.112;2023-02-19T11:15:59;11.60;99.90
18932;DHT22;9598;50.954;3.112;2023-02-19T11:21:04;11.50;99.90
18932;DHT22;9598;50.954;3.112;2023-02-19T11:26:16;11.60;99.90
18932;DHT22;9598;50.954;3.112;2023-02-19T11:31:23;11.60;99.90
18932;DHT22;9598;50.954;3.112;2023-02-19T11:36:31;11.60;99.90
18932;DHT22;9598;50.954;3.112;2023-02-19T11:42:02;11.60;99.90
18932;DHT22;9598;50.954;3.112;2023-02-19T11:47:41;11.60;99.90
18932;DHT22;9598;50.954;3.112;2023-02-19T11:52:54;11.60;99.90
18932;DHT22;9598;50.954;3.112;2023-02-19T11:58:11;11.70;99.90
18932;DHT22;9598;50.954;3.112;2023-02-19T12:03:40;11.70;99.90
18932;DHT22;9598;50.954;3.112;2023-02-19T12:09:12;11.70;99.90
18932;DHT22;9598;50.954;3.112;2023-02-19T12:14:49;11.60;99.90
18932;DHT22;9598;50.954;3.112;2023-02-19T12:20:03;11.70;99.90
18932;DHT22;9598;50.954;3.112;2023-02-19T12:25:21;11.70;99.90
18932;DHT22;9598;50.954;3.112;2023-02-19T12:30:39;11.70;99.90
18932;DHT22;9598;50.954;3.112;2023-02-19T12:35:49;11.70;99.90
18932;DHT22;9598;50.954;3.112;2023-02-19T12:41:08;11.70;99.90
18932;DHT22;9598;50.954;3.112;2023-02-19T12:46:19;11.70;99.90
18932;DHT22;9598;50.954;3.112;2023-02-19T12:51:26;11.70;99.90
18932;DHT22;9598;50.954;3.112;2023-02-19T12:56:34;11.70;99.90
18932;DHT22;9598;50.954;3.112;2023-02-19T13:01:45;11.70;99.90
18932;DHT22;9598;50.954;3.112;2023-02-19T13:06:52;11.70;99.90
18932;DHT22;9598;50.954;3.112;2023-02-19T13:12:00;11.60;99.90
18932;DHT22;9598;50.954;3.112;2023-02-19T13:17:11;11.60;99.90
18932;DHT22;9598;50.954;3.112;2023-02-19T13:22:23;11.50;99.90
18932;DHT22;9598;50.954;3.112;2023-02-19T13:28:07;11.50;99.90
18932;DHT22;9598;50.954;3.112;2023-02-19T13:33:21;11.50;99.90
18932;DHT22;9598;50.954;3.112;2023-02-19T13:38:26;11.60;99.90
18932;DHT22;9598;50.954;3.112;2023-02-19T13:43:30;11.60;99.90
18932;DHT22;9598;50.954;3.112;2023-02-19T13:48:38;11.60;99.90
18932;DHT22;9598;50.954;3.112;2023-02-19T13:53:56;11.70;99.90
18932;DHT22;9598;50.954;3.112;2023-02-19T13:59:12;11.70;99.90
18932;DHT22;9598;50.954;3.112;2023-02-19T14:04:25;11.60;99.90
18932;DHT22;9598;50.954;3.112;2023-02-19T14:09:44;11.60;99.90
18932;DHT22;9598;50.954;3.112;2023-02-19T14:14:47;11.60;99.90
18932;DHT22;9598;50.954;3.112;2023-02-19T14:19:58;11.70;99.90
18932;DHT22;9598;50.954;3.112;2023-02-19T14:25:03;11.70;99.90
18932;DHT22;9598;50.954;3.112;2023-02-19T14:30:10;11.70;99.90
18932;DHT22;9598;50.954;3.112;2023-02-19T14:35:18;11.70;99.90
18932;DHT22;9598;50.954;3.112;2023-02-19T14:40:25;11.70;99.90
18932;DHT22;9598;50.954;3.112;2023-02-19T14:45:28;11.70;99.90
18932;DHT22;9598;50.954;3.112;2023-02-19T14:50:33;11.70;99.90
18932;DHT22;9598;50.954;3.112;2023-02-19T14:55:37;11.70;99.90
18932;DHT22;9598;50.954;3.112;2023-02-19T15:00:42;11.60;99.90
18932;DHT22;9598;50.954;3.112;2023-02-19T15:05:45;11.60;99.90
18932;DHT22;9598;50.954;3.112;2023-02-19T15:10:49;11.60;99.90
18932;DHT22;9598;50.954;3.112;2023-02-19T15:15:51;11.60;99.90
18932;DHT22;9598;50.954;3.112;2023-02-19T15:21:01;11.60;99.90
18932;DHT22;9598;50.954;3.112;2023-02-19T15:26:04;11.60;99.90
18932;DHT22;9598;50.954;3.112;2023-02-19T15:31:15;11.60;99.90
18932;DHT22;9598;50.954;3.112;2023-02-19T15:36:24;11.70;99.90
18932;DHT22;9598;50.954;3.112;2023-02-19T15:41:30;11.70;99.90
18932;DHT22;9598;50.954;3.112;2023-02-19T15:46:34;11.60;99.90
18932;DHT22;9598;50.954;3.112;2023-02-19T15:51:41;11.60;99.90
18932;DHT22;9598;50.954;3.112;2023-02-19T15:56:48;11.60;99.90
18932;DHT22;9598;50.954;3.112;2023-02-19T16:01:50;11.60;99.90
18932;DHT22;9598;50.954;3.112;2023-02-19T16:06:56;11.50;99.90
18932;DHT22;9598;50.954;3.112;2023-02-19T16:11:59;11.50;99.90
18932;DHT22;9598;50.954;3.112;2023-02-19T16:17:05;11.50;99.90
18932;DHT22;9598;50.954;3.112;2023-02-19T16:22:17;11.50;99.90
18932;DHT22;9598;50.954;3.112;2023-02-19T16:27:28;11.50;99.90
18932;DHT22;9598;50.954;3.112;2023-02-19T16:32:31;11.50;99.90
18932;DHT22;9598;50.954;3.112;2023-02-19T16:37:37;11.50;99.90
18932;DHT22;9598;50.954;3.112;2023-02-19T16:48:25;11.40;99.90
18932;DHT22;9598;50.954;3.112;2023-02-19T16:53:29;11.30;99.90
18932;DHT22;9598;50.954;3.112;2023-02-19T16:58:32;11.30;99.90
18932;DHT22;9598;50.954;3.112;2023-02-19T17:03:36;11.20;99.90
18932;DHT22;9598;50.954;3.112;2023-02-19T17:08:41;11.20;99.90
18932;DHT22;9598;50.954;3.112;2023-02-19T17:13:45;11.20;99.90
18932;DHT22;9598;50.954;3.112;2023-02-19T17:18:47;11.10;99.90
18932;DHT22;9598;50.954;3.112;2023-02-19T17:23:51;11.10;99.90
18932;DHT22;9598;50.954;3.112;2023-02-19T17:28:55;11.10;99.90
18932;DHT22;9598;50.954;3.112;2023-02-19T17:33:57;11.20;99.90
18932;DHT22;9598;50.954;3.112;2023-02-19T17:39:03;11.10;99.90
18932;DHT22;9598;50.954;3.112;2023-02-19T17:44:06;10.90;99.90
18932;DHT22;9598;50.954;3.112;2023-02-19T17:49:09;10.80;99.90
18932;DHT22;9598;50.954;3.112;2023-02-19T17:54:14;10.70;99.90
18932;DHT22;9598;50.954;3.112;2023-02-19T17:59:16;10.70;99.90
18932;DHT22;9598;50.954;3.112;2023-02-19T18:04:18;10.70;99.90
18932;DHT22;9598;50.954;3.112;2023-02-19T18:09:22;10.60;99.90
18932;DHT22;9598;50.954;3.112;2023-02-19T18:14:24;10.60;99.90
18932;DHT22;9598;50.954;3.112;2023-02-19T18:19:26;10.50;99.90
18932;DHT22;9598;50.954;3.112;2023-02-19T18:24:29;10.50;99.90
18932;DHT22;9598;50.954;3.112;2023-02-19T18:29:32;10.40;99.90
18932;DHT22;9598;50.954;3.112;2023-02-19T18:34:34;10.40;99.90
18932;DHT22;9598;50.954;3.112;2023-02-19T18:39:37;10.30;99.90
18932;DHT22;9598;50.954;3.112;2023-02-19T18:44:39;10.20;99.90
18932;DHT22;9598;50.954;3.112;2023-02-19T18:49:44;10.20;99.90
18932;DHT22;9598;50.954;3.112;2023-02-19T18:54:49;10.00;99.90
18932;DHT22;9598;50.954;3.112;2023-02-19T18:59:52;9.90;99.90
18932;DHT22;9598;50.954;3.112;2023-02-19T19:04:54;9.80;99.90
18932;DHT22;9598;50.954;3.112;2023-02-19T19:09:58;9.80;99.90
18932;DHT22;9598;50.954;3.112;2023-02-19T19:15:00;9.70;99.90
18932;DHT22;9598;50.954;3.112;2023-02-19T19:20:04;9.70;99.90
18932;DHT22;9598;50.954;3.112;2023-02-19T19:25:08;9.60;99.90
18932;DHT22;9598;50.954;3.112;2023-02-19T19:30:11;9.60;99.90
18932;DHT22;9598;50.954;3.112;2023-02-19T19:35:15;9.60;99.90
18932;DHT22;9598;50.954;3.112;2023-02-19T19:40:19;9.60;99.90
18932;DHT22;9598;50.954;3.112;2023-02-19T19:45:21;9.50;99.90
18932;DHT22;9598;50.954;3.112;2023-02-19T19:50:23;9.50;99.90
18932;DHT22;9598;50.954;3.112;2023-02-19T19:55:27;9.40;99.90
18932;DHT22;9598;50.954;3.112;2023-02-19T20:00:29;9.40;99.90
18932;DHT22;9598;50.954;3.112;2023-02-19T20:05:31;9.40;99.90
18932;DHT22;9598;50.954;3.112;2023-02-19T20:10:34;9.30;99.90
18932;DHT22;9598;50.954;3.112;2023-02-19T20:15:37;9.20;99.90
18932;DHT22;9598;50.954;3.112;2023-02-19T20:20:39;9.10;99.90
18932;DHT22;9598;50.954;3.112;2023-02-19T20:25:42;9.10;99.90
18932;DHT22;9598;50.954;3.112;2023-02-19T20:30:44;9.10;99.90
18932;DHT22;9598;50.954;3.112;2023-02-19T20:35:46;9.10;99.90
18932;DHT22;9598;50.954;3.112;2023-02-19T20:40:50;9.00;99.90
18932;DHT22;9598;50.954;3.112;2023-02-19T20:45:52;9.00;99.90
18932;DHT22;9598;50.954;3.112;2023-02-19T20:50:54;9.00;99.90
18932;DHT22;9598;50.954;3.112;2023-02-19T20:56:00;9.10;99.90
18932;DHT22;9598;50.954;3.112;2023-02-19T21:01:03;9.00;99.90
18932;DHT22;9598;50.954;3.112;2023-02-19T21:06:05;9.00;99.90
18932;DHT22;9598;50.954;3.112;2023-02-19T21:11:09;8.90;99.90
18932;DHT22;9598;50.954;3.112;2023-02-19T21:16:11;9.00;99.90
18932;DHT22;9598;50.954;3.112;2023-02-19T21:21:16;8.90;99.90
18932;DHT22;9598;50.954;3.112;2023-02-19T21:26:21;8.80;99.90
18932;DHT22;9598;50.954;3.112;2023-02-19T21:31:23;8.80;99.90
18932;DHT22;9598;50.954;3.112;2023-02-19T21:36:26;8.80;99.90
18932;DHT22;9598;50.954;3.112;2023-02-19T21:41:29;8.70;99.90
18932;DHT22;9598;50.954;3.112;2023-02-19T21:46:31;8.70;99.90
18932;DHT22;9598;50.954;3.112;2023-02-19T21:51:35;8.70;99.90
18932;DHT22;9598;50.954;3.112;2023-02-19T21:56:39;8.70;99.90
18932;DHT22;9598;50.954;3.112;2023-02-19T22:01:41;8.70;99.90
18932;DHT22;9598;50.954;3.112;2023-02-19T22:06:43;8.70;99.90
18932;DHT22;9598;50.954;3.112;2023-02-19T22:11:47;8.70;99.90
18932;DHT22;9598;50.954;3.112;2023-02-19T22:16:49;8.70;99.90
18932;DHT22;9598;50.954;3.112;2023-02-19T22:21:51;8.70;99.90
18932;DHT22;9598;50.954;3.112;2023-02-19T22:26:56;8.70;99.90
18932;DHT22;9598;50.954;3.112;2023-02-19T22:31:58;8.70;99.90
18932;DHT22;9598;50.954;3.112;2023-02-19T22:37:01;8.60;99.90
18932;DHT22;9598;50.954;3.112;2023-02-19T22:42:05;8.60;99.90
18932;DHT22;9598;50.954;3.112;2023-02-19T22:47:07;8.50;99.90
18932;DHT22;9598;50.954;3.112;2023-02-19T22:52:09;8.50;99.90
18932;DHT22;9598;50.954;3.112;2023-02-19T22:57:14;8.50;99.90
18932;DHT22;9598;50.954;3.112;2023-02-19T23:02:16;8.40;99.90
18932;DHT22;9598;50.954;3.112;2023-02-19T23:07:18;8.50;99.90
18932;DHT22;9598;50.954;3.112;2023-02-19T23:12:22;8.40;99.90
18932;DHT22;9598;50.954;3.112;2023-02-19T23:17:24;8.40;99.90
18932;DHT22;9598;50.954;3.112;2023-02-19T23:22:26;8.40;99.90
18932;DHT22;9598;50.954;3.112;2023-02-19T23:27:30;8.30;99.90
18932;DHT22;9598;50.954;3.112;2023-02-19T23:32:32;8.30;99.90
18932;DHT22;9598;50.954;3.112;2023-02-19T23:37:34;8.30;99.90
18932;DHT22;9598;50.954;3.112;2023-02-19T23:42:38;8.30;99.90
18932;DHT22;9598;50.954;3.112;2023-02-19T23:47:40;8.30;99.90
18932;DHT22;9598;50.954;3.112;2023-02-19T23:52:42;8.30;99.90
18932;DHT22;9598;50.954;3.112;2023-02-19T23:57:45;8.30;99.90
